Time;durP1;ratioP1;P1;durP2;ratioP2;P2;SDS_P1;SDS_P2;PMS_P1;PMS_P2;Temp;Humidity;BMP_temperature;BMP_pressure;BME280_temperature;BME280_humidity;BME280_pressure;Samples;Min_cycle;Max_cycle;Signal;HPM_P1;HPM_P2
2024/01/27 00:02:20;;;;;;;5.72;3.20;;;;;;;3.52;71.06;98285.00;5033987;28;20462;-82
2024/01/27 00:04:49;;;;;;;4.53;2.35;;;;;;;3.52;72.60;98292.75;5033748;28;20198;-82
2024/01/27 00:07:17;;;;;;;3.92;2.80;;;;;;;3.60;74.50;98293.06;5033493;28;20498;-82
2024/01/27 00:09:45;;;;;;;4.10;2.42;;;;;;;3.71;76.05;98285.47;5034281;28;20053;-82
2024/01/27 00:12:12;;;;;;;5.40;2.65;;;;;;;3.78;74.11;98292.81;5033640;28;20052;-82
2024/01/27 00:14:40;;;;;;;4.28;2.00;;;;;;;3.66;71.97;98297.84;5034101;28;20376;-82
2024/01/27 00:17:08;;;;;;;4.30;2.15;;;;;;;3.58;71.82;98297.50;5033782;28;20057;-82
2024/01/27 00:19:35;;;;;;;3.30;2.25;;;;;;;3.52;71.69;98300.47;5033879;28;20080;-82
2024/01/27 00:22:09;;;;;;;6.75;2.45;;;;;;;3.46;71.25;98300.84;5033863;28;20042;-82
2024/01/27 00:24:36;;;;;;;4.70;2.10;;;;;;;3.39;71.21;98302.13;5043403;28;20097;-82
2024/01/27 00:27:04;;;;;;;4.00;1.92;;;;;;;3.29;71.20;98302.72;5054477;28;20042;-82
2024/01/27 00:29:32;;;;;;;4.35;1.88;;;;;;;3.20;71.13;98295.53;5054613;28;20050;-82
2024/01/27 00:32:00;;;;;;;6.35;2.28;;;;;;;3.13;71.28;98302.00;5054254;28;20084;-82
2024/01/27 00:34:27;;;;;;;7.65;2.88;;;;;;;3.09;71.77;98303.94;5036846;28;20060;-82
2024/01/27 00:36:55;;;;;;;3.88;2.22;;;;;;;3.07;71.39;98300.63;5034826;28;20546;-82
2024/01/27 00:39:24;;;;;;;5.25;2.40;;;;;;;3.08;71.89;98302.28;5033438;28;20136;-82
2024/01/27 00:41:52;;;;;;;3.33;2.22;;;;;;;3.14;72.36;98306.22;5033538;28;20050;-82
2024/01/27 00:44:20;;;;;;;3.53;2.05;;;;;;;3.16;71.91;98317.28;5033358;28;20420;-82
2024/01/27 00:46:47;;;;;;;6.65;2.60;;;;;;;3.12;71.51;98326.13;5033287;28;20046;-82
2024/01/27 00:49:15;;;;;;;4.30;2.30;;;;;;;3.08;71.69;98324.63;5035581;28;20050;-82
2024/01/27 00:51:43;;;;;;;6.70;2.63;;;;;;;3.04;71.50;98323.16;5036710;28;20096;-82
2024/01/27 00:54:10;;;;;;;6.40;3.00;;;;;;;3.02;71.75;98322.44;5036224;28;20049;-82
2024/01/27 00:56:39;;;;;;;7.70;2.55;;;;;;;3.01;72.23;98320.78;5036297;28;20407;-82
2024/01/27 00:59:07;;;;;;;5.15;2.45;;;;;;;3.00;72.06;98330.28;5036392;28;20526;-82
2024/01/27 01:01:34;;;;;;;4.18;2.28;;;;;;;3.00;72.11;98327.69;5036072;28;20055;-82
2024/01/27 01:04:02;;;;;;;5.05;2.25;;;;;;;3.02;72.34;98325.84;5035852;28;20095;-82
2024/01/27 01:06:30;;;;;;;3.97;2.42;;;;;;;3.01;72.29;98337.06;5036598;28;20064;-82
2024/01/27 01:08:57;;;;;;;7.43;3.40;;;;;;;3.04;72.86;98339.47;5036251;28;20069;-82
2024/01/27 01:11:25;;;;;;;5.97;2.50;;;;;;;3.11;72.83;98333.97;5035926;28;20053;-82
2024/01/27 01:13:54;;;;;;;3.95;2.33;;;;;;;3.20;72.88;98335.97;5036180;28;20124;-82
2024/01/27 01:16:21;;;;;;;5.72;2.53;;;;;;;3.24;72.51;98332.31;5036236;28;20049;-82
2024/01/27 01:18:49;;;;;;;6.47;2.53;;;;;;;3.26;72.36;98341.59;5035934;28;20059;-82
2024/01/27 01:21:17;;;;;;;4.03;2.55;;;;;;;3.26;72.39;98341.59;5036142;28;20056;-82
2024/01/27 01:23:44;;;;;;;4.47;2.78;;;;;;;3.27;72.40;98332.09;5035511;28;20084;-82
2024/01/27 01:26:12;;;;;;;4.28;2.78;;;;;;;3.25;72.21;98334.75;5035516;28;20057;-82
2024/01/27 01:28:39;;;;;;;7.40;2.65;;;;;;;3.26;72.26;98341.59;5035445;28;20510;-82
2024/01/27 01:31:08;;;;;;;4.85;2.70;;;;;;;3.25;72.37;98334.75;5035356;28;20057;-82
2024/01/27 01:33:36;;;;;;;6.50;2.30;;;;;;;3.24;72.83;98333.13;5035468;28;20056;-82
2024/01/27 01:36:04;;;;;;;3.30;2.22;;;;;;;3.30;72.93;98343.06;5035880;28;20148;-82
2024/01/27 01:38:32;;;;;;;7.50;3.15;;;;;;;3.35;72.98;98344.53;5036019;28;20100;-82
2024/01/27 01:41:00;;;;;;;7.20;2.97;;;;;;;3.38;72.25;98341.75;5035429;28;20051;-82
2024/01/27 01:43:27;;;;;;;3.08;2.58;;;;;;;3.37;72.31;98343.53;5034944;28;20136;-82
2024/01/27 01:45:55;;;;;;;6.32;2.47;;;;;;;3.36;72.38;98341.03;5034768;28;20055;-82
2024/01/27 01:48:24;;;;;;;4.18;2.30;;;;;;;3.37;72.56;98342.66;5035243;28;20049;-82
2024/01/27 01:50:52;;;;;;;17.80;3.47;;;;;;;3.39;72.80;98346.00;5035221;28;20092;-82
2024/01/27 01:53:19;;;;;;;6.55;2.42;;;;;;;3.44;72.94;98349.13;5034942;28;20446;-82
2024/01/27 01:55:47;;;;;;;4.85;2.30;;;;;;;3.44;72.72;98360.28;5034504;28;20105;-82
2024/01/27 01:58:15;;;;;;;5.47;2.60;;;;;;;3.47;72.74;98359.25;5034600;28;20045;-82
2024/01/27 02:00:42;;;;;;;5.05;2.85;;;;;;;3.48;72.38;98363.50;5035114;28;20049;-82
2024/01/27 02:03:11;;;;;;;6.88;3.55;;;;;;;3.47;72.79;98367.00;5035059;28;20103;-82
2024/01/27 02:05:40;;;;;;;5.00;2.38;;;;;;;3.50;72.94;98369.41;5035440;28;20495;-82
2024/01/27 02:08:08;;;;;;;5.00;2.85;;;;;;;3.55;72.91;98366.53;5034979;28;20049;-82
2024/01/27 02:10:39;;;;;;;6.47;2.60;;;;;;;3.57;73.82;98360.34;5034974;28;20509;-82
2024/01/27 02:13:17;;;;;;;15.77;5.63;;;;;;;3.64;73.86;98364.22;5034996;28;20136;-82
2024/01/27 02:15:44;;;;;;;6.45;2.50;;;;;;;3.66;73.88;98372.69;5035245;28;20053;-82
2024/01/27 02:18:12;;;;;;;6.78;3.35;;;;;;;3.71;74.05;98377.56;5034810;28;20084;-82
2024/01/27 02:20:41;;;;;;;6.05;3.10;;;;;;;3.74;73.63;98386.88;5034623;28;20123;-82
2024/01/27 02:23:09;;;;;;;8.25;4.03;;;;;;;3.75;72.92;98393.69;5034331;28;20667;-82
2024/01/27 02:25:38;;;;;;;5.35;3.53;;;;;;;3.74;73.50;98392.03;5034295;28;20057;-82
2024/01/27 02:28:06;;;;;;;4.40;2.97;;;;;;;3.76;73.74;98395.34;5034307;28;20056;-82
2024/01/27 02:30:34;;;;;;;6.07;3.45;;;;;;;3.77;73.42;98400.41;5034511;28;20068;-82
2024/01/27 02:33:03;;;;;;;5.13;3.15;;;;;;;3.80;73.17;98401.97;5034406;28;20053;-82
2024/01/27 02:35:31;;;;;;;7.13;3.65;;;;;;;3.77;73.02;98407.34;5034204;28;20045;-82
2024/01/27 02:37:58;;;;;;;4.20;2.83;;;;;;;3.76;73.26;98411.69;5034637;28;20481;-82
2024/01/27 02:40:26;;;;;;;8.60;3.75;;;;;;;3.81;73.79;98419.97;5034043;28;20509;-82
2024/01/27 02:42:55;;;;;;;5.70;2.80;;;;;;;3.83;73.88;98423.28;5033800;28;20624;-82
2024/01/27 02:45:23;;;;;;;6.03;3.03;;;;;;;3.89;74.77;98424.63;5034162;28;20042;-82
2024/01/27 02:47:50;;;;;;;7.18;3.28;;;;;;;4.00;76.01;98427.41;5034017;28;20404;-82
2024/01/27 02:50:19;;;;;;;5.13;3.20;;;;;;;4.08;76.36;98427.72;5034702;28;20085;-81
2024/01/27 02:52:46;;;;;;;8.32;2.72;;;;;;;4.11;76.90;98435.31;5034041;28;20049;-82
2024/01/27 02:55:14;;;;;;;7.03;3.75;;;;;;;4.13;75.57;98436.03;5034285;28;20050;-82
2024/01/27 02:57:41;;;;;;;5.25;3.55;;;;;;;4.08;74.07;98440.66;5034031;28;20092;-82
2024/01/27 03:00:11;;;;;;;4.95;3.03;;;;;;;4.06;73.98;98439.91;5036343;28;20045;-81
2024/01/27 03:02:39;;;;;;;7.43;2.88;;;;;;;4.03;73.14;98440.13;5035656;28;20052;-82
2024/01/27 03:05:07;;;;;;;10.77;3.65;;;;;;;4.00;73.38;98453.22;5033491;28;20049;-82
2024/01/27 03:07:35;;;;;;;7.13;2.90;;;;;;;4.01;73.14;98446.31;5033876;28;20084;-82
2024/01/27 03:10:03;;;;;;;6.43;3.33;;;;;;;3.99;72.81;98442.97;5033721;28;20061;-82
2024/01/27 03:12:30;;;;;;;4.65;2.90;;;;;;;4.03;74.38;98447.88;5032853;28;20080;-82
2024/01/27 03:14:58;;;;;;;5.80;3.47;;;;;;;4.14;76.32;98447.19;5033741;28;20081;-82
2024/01/27 03:17:27;;;;;;;8.57;3.15;;;;;;;4.25;76.99;98454.28;5033519;28;20519;-82
2024/01/27 03:19:55;;;;;;;4.55;2.90;;;;;;;4.37;76.93;98448.31;5033733;28;20059;-82
2024/01/27 03:22:22;;;;;;;6.25;3.08;;;;;;;4.42;75.54;98446.28;5033589;28;20048;-82
2024/01/27 03:24:51;;;;;;;5.70;3.58;;;;;;;4.47;75.57;98449.41;5042389;28;20088;-82
2024/01/27 03:27:19;;;;;;;6.72;3.10;;;;;;;4.54;76.71;98452.41;5054966;28;20060;-81
2024/01/27 03:29:47;;;;;;;5.10;2.67;;;;;;;4.57;76.15;98451.38;5054920;28;20064;-82
2024/01/27 03:32:15;;;;;;;9.07;3.53;;;;;;;4.56;77.03;98440.22;5054956;28;20056;-82
2024/01/27 03:34:45;;;;;;;7.05;3.20;;;;;;;4.59;76.34;98442.63;5041604;28;20072;-82
2024/01/27 03:37:14;;;;;;;11.15;3.50;;;;;;;4.66;77.34;98450.81;5034496;28;20206;-82
2024/01/27 03:39:42;;;;;;;8.45;3.47;;;;;;;4.72;77.35;98447.81;5034131;28;20073;-82
2024/01/27 03:42:10;;;;;;;8.52;3.33;;;;;;;4.77;77.53;98450.09;5033756;28;20076;-82
2024/01/27 03:44:38;;;;;;;6.50;3.45;;;;;;;4.81;78.03;98452.41;5046465;28;20029;-82
2024/01/27 03:47:05;;;;;;;5.85;3.63;;;;;;;4.86;78.55;98449.53;5056806;28;20103;-82
2024/01/27 03:49:33;;;;;;;5.72;3.63;;;;;;;4.89;79.34;98454.47;5056205;28;20084;-82
2024/01/27 03:52:02;;;;;;;7.28;4.07;;;;;;;4.93;78.24;98461.94;5049160;28;20049;-82
2024/01/27 03:54:30;;;;;;;4.45;3.35;;;;;;;4.91;78.19;98457.81;5036463;28;20045;-82
2024/01/27 03:56:57;;;;;;;6.20;3.38;;;;;;;4.91;78.81;98450.03;5035251;28;20060;-82
2024/01/27 03:59:25;;;;;;;8.15;3.38;;;;;;;4.91;78.62;98447.44;5034686;28;20055;-82
2024/01/27 04:01:53;;;;;;;5.93;3.10;;;;;;;4.94;79.36;98450.69;5034487;28;20549;-82
2024/01/27 04:04:20;;;;;;;5.95;3.20;;;;;;;4.94;78.31;98444.66;5034021;28;20052;-82
2024/01/27 04:06:48;;;;;;;6.78;2.65;;;;;;;4.92;78.14;98449.94;5033999;28;20099;-82
2024/01/27 04:09:18;;;;;;;5.32;2.72;;;;;;;4.90;76.35;98445.81;5033988;28;20086;-82
2024/01/27 04:11:46;;;;;;;8.35;3.30;;;;;;;4.79;76.18;98451.69;5033705;28;20045;-82
2024/01/27 04:14:14;;;;;;;8.70;2.75;;;;;;;4.68;74.63;98442.03;5033279;28;20046;-82
2024/01/27 04:16:41;;;;;;;5.70;3.38;;;;;;;4.58;74.41;98447.91;5033544;28;20489;-82
2024/01/27 04:19:09;;;;;;;4.95;3.10;;;;;;;4.46;74.17;98447.75;5033273;28;20144;-82
2024/01/27 04:21:37;;;;;;;4.32;2.80;;;;;;;4.33;73.32;98450.28;5032827;28;20065;-82
2024/01/27 04:24:05;;;;;;;5.53;3.25;;;;;;;4.20;73.04;98446.81;5034373;28;20491;-82
2024/01/27 04:26:34;;;;;;;5.40;3.20;;;;;;;4.11;73.41;98453.38;5036799;28;20092;-82
2024/01/27 04:29:02;;;;;;;7.65;3.05;;;;;;;4.04;73.31;98452.09;5036669;28;20529;-82
2024/01/27 04:31:31;;;;;;;5.35;2.72;;;;;;;4.00;73.29;98454.97;5036694;28;20503;-82
2024/01/27 04:33:58;;;;;;;6.25;3.28;;;;;;;3.96;73.49;98448.31;5036346;28;20050;-82
2024/01/27 04:36:27;;;;;;;6.28;2.95;;;;;;;3.98;74.17;98457.66;5037096;28;20052;-82
2024/01/27 04:38:55;;;;;;;5.47;3.03;;;;;;;4.01;73.26;98469.53;5036704;28;20489;-82
2024/01/27 04:41:23;;;;;;;4.63;2.75;;;;;;;3.91;72.58;98461.50;5036631;28;20049;-82
2024/01/27 04:43:52;;;;;;;5.20;3.10;;;;;;;3.83;72.34;98466.34;5036461;28;20141;-82
2024/01/27 04:46:20;;;;;;;4.97;2.80;;;;;;;3.74;72.15;98470.31;5036707;28;20056;-82
2024/01/27 04:48:48;;;;;;;5.68;2.70;;;;;;;3.64;72.14;98475.19;5036500;28;20052;-82
2024/01/27 04:51:16;;;;;;;5.25;3.28;;;;;;;3.54;72.30;98468.91;5036214;28;20056;-82
2024/01/27 04:53:43;;;;;;;6.53;2.97;;;;;;;3.44;72.33;98478.13;5036315;28;20085;-82
2024/01/27 04:56:12;;;;;;;8.50;3.58;;;;;;;3.38;72.49;98478.47;5036352;28;20095;-82
2024/01/27 04:58:40;;;;;;;7.97;2.95;;;;;;;3.35;72.50;98483.84;5036342;28;20060;-82
2024/01/27 05:01:09;;;;;;;7.40;3.63;;;;;;;3.31;72.63;98483.19;5036114;28;20049;-82
2024/01/27 05:03:37;;;;;;;10.57;3.38;;;;;;;3.31;73.15;98490.91;5035850;28;20046;-82
2024/01/27 05:06:08;;;;;;;3.97;3.05;;;;;;;3.27;72.30;98487.66;5036614;28;20045;-82
2024/01/27 05:08:37;;;;;;;9.43;3.63;;;;;;;3.22;72.09;98487.13;5036555;28;20045;-82
2024/01/27 05:11:04;;;;;;;8.80;3.33;;;;;;;3.18;72.40;98487.38;5036335;28;20081;-82
2024/01/27 05:13:32;;;;;;;4.88;2.90;;;;;;;3.19;72.29;98491.63;5036216;28;20053;-82
2024/01/27 05:16:00;;;;;;;11.32;3.80;;;;;;;3.16;72.53;98490.06;5036158;28;20108;-82
2024/01/27 05:18:29;;;;;;;10.75;5.10;;;;;;;3.11;72.38;98491.25;5036551;28;20124;-82
2024/01/27 05:20:57;;;;;;;6.55;2.95;;;;;;;3.06;72.50;98494.06;5036042;28;20059;-82
2024/01/27 05:23:25;;;;;;;8.45;3.03;;;;;;;3.03;72.38;98499.41;5035788;28;20049;-82
2024/01/27 05:25:54;;;;;;;8.57;3.08;;;;;;;3.03;72.53;98494.25;5036336;28;20096;-82
2024/01/27 05:28:22;;;;;;;5.47;2.92;;;;;;;3.01;72.53;98488.34;5036205;28;20088;-82
2024/01/27 05:30:49;;;;;;;8.70;3.67;;;;;;;3.00;72.49;98489.28;5035113;28;20560;-82
2024/01/27 05:33:17;;;;;;;8.15;3.38;;;;;;;2.97;72.06;98490.25;5035164;28;20077;-82
2024/01/27 05:35:46;;;;;;;6.35;3.20;;;;;;;2.95;72.41;98491.28;5034759;28;20485;-82
2024/01/27 05:38:14;;;;;;;6.93;2.95;;;;;;;2.92;72.60;98486.31;5039696;28;20045;-82
2024/01/27 05:40:41;;;;;;;9.52;3.85;;;;;;;2.88;72.29;98499.34;5035781;28;20048;-82
2024/01/27 05:43:09;;;;;;;7.05;3.30;;;;;;;2.91;72.82;98500.09;5035863;28;20108;-82
2024/01/27 05:45:37;;;;;;;7.47;3.22;;;;;;;2.89;72.53;98503.59;5037251;28;20085;-82
2024/01/27 05:48:05;;;;;;;8.25;3.45;;;;;;;2.88;72.98;98511.41;5036927;28;20051;-83
2024/01/27 05:50:34;;;;;;;5.45;3.40;;;;;;;2.89;72.77;98519.06;5036907;28;20061;-82
2024/01/27 05:53:03;;;;;;;6.30;2.95;;;;;;;2.91;73.01;98515.56;5037433;28;20057;-83
2024/01/27 05:55:31;;;;;;;12.35;4.60;;;;;;;3.01;75.21;98511.56;5037583;28;20061;-82
2024/01/27 05:57:58;;;;;;;8.40;3.50;;;;;;;3.14;75.38;98516.84;5037397;28;20085;-82
2024/01/27 06:00:26;;;;;;;5.22;3.85;;;;;;;3.12;73.66;98516.94;5037849;28;20152;-82
2024/01/27 06:02:54;;;;;;;7.10;3.38;;;;;;;3.12;73.52;98523.84;5045622;28;20045;-82
2024/01/27 06:05:22;;;;;;;7.80;3.30;;;;;;;3.11;72.93;98528.16;5055495;28;20072;-83
2024/01/27 06:07:50;;;;;;;5.97;3.50;;;;;;;3.09;72.28;98530.81;5055023;28;20065;-82
2024/01/27 06:10:19;;;;;;;6.13;3.70;;;;;;;3.07;72.69;98521.53;5046964;28;20065;-83
2024/01/27 06:12:46;;;;;;;8.05;3.45;;;;;;;3.05;72.34;98523.34;5035287;28;20108;-82
2024/01/27 06:15:15;;;;;;;11.00;4.43;;;;;;;3.02;72.96;98524.38;5035476;28;20046;-82
2024/01/27 06:17:43;;;;;;;6.63;3.33;;;;;;;3.00;72.79;98520.22;5035891;28;20144;-82
2024/01/27 06:20:11;;;;;;;12.55;4.60;;;;;;;2.98;72.74;98527.22;5035193;28;20045;-82
2024/01/27 06:22:39;;;;;;;18.38;4.53;;;;;;;2.94;72.71;98530.88;5035715;28;20099;-82
2024/01/27 06:25:09;;;;;;;6.93;4.53;;;;;;;2.91;72.84;98529.31;5035238;28;20055;-82
2024/01/27 06:27:38;;;;;;;10.52;4.85;;;;;;;2.86;73.14;98527.00;5035247;28;20136;-82
2024/01/27 06:30:07;;;;;;;8.73;4.32;;;;;;;2.84;73.13;98527.97;5035465;28;20128;-82
2024/01/27 06:32:35;;;;;;;13.07;5.63;;;;;;;2.81;73.10;98531.56;5035140;28;20511;-82
2024/01/27 06:35:03;;;;;;;5.93;4.15;;;;;;;2.78;73.15;98542.03;5035015;28;20103;-82
2024/01/27 06:37:31;;;;;;;11.77;4.57;;;;;;;2.76;73.39;98537.88;5034317;28;20045;-82
2024/01/27 06:39:59;;;;;;;14.82;5.35;;;;;;;2.74;73.43;98545.69;5034352;28;20069;-82
2024/01/27 06:42:26;;;;;;;10.10;5.28;;;;;;;2.71;73.48;98548.44;5033764;28;20051;-82
2024/01/27 06:44:55;;;;;;;8.68;4.70;;;;;;;2.69;73.46;98550.28;5035175;28;20578;-82
2024/01/27 06:47:23;;;;;;;11.45;5.28;;;;;;;2.65;73.63;98548.78;5042975;28;20097;-82
2024/01/27 06:49:50;;;;;;;13.93;4.80;;;;;;;2.63;73.42;98553.19;5056806;28;20061;-82
2024/01/27 06:52:18;;;;;;;11.50;4.75;;;;;;;2.60;73.78;98543.03;5057541;28;20033;-82
2024/01/27 06:54:46;;;;;;;11.38;4.28;;;;;;;2.60;74.06;98543.03;5056247;28;20066;-82
2024/01/27 06:57:19;;;;;;;9.00;5.03;;;;;;;2.60;73.63;98546.47;5057304;28;20048;-82
2024/01/27 06:59:51;;;;;;;8.23;4.90;;;;;;;2.58;73.65;98550.88;5057072;28;20029;-82
2024/01/27 07:02:23;;;;;;;8.75;5.30;;;;;;;2.55;73.87;98555.34;5055374;28;20069;-82
2024/01/27 07:04:51;;;;;;;8.57;5.45;;;;;;;2.51;73.50;98557.25;5056501;28;20033;-82
2024/01/27 07:07:21;;;;;;;10.35;5.45;;;;;;;2.50;73.48;98563.34;5056511;28;20041;-82
2024/01/27 07:09:49;;;;;;;12.65;5.80;;;;;;;2.47;74.08;98551.44;5056531;28;20049;-83
2024/01/27 07:12:16;;;;;;;10.70;6.18;;;;;;;2.46;74.15;98552.34;5044355;28;20139;-82
2024/01/27 07:14:44;;;;;;;8.43;5.63;;;;;;;2.48;74.98;98545.38;5034122;28;20054;-82
2024/01/27 07:17:12;;;;;;;12.77;5.30;;;;;;;2.54;75.01;98554.53;5041685;28;20051;-83
2024/01/27 07:19:41;;;;;;;7.45;5.28;;;;;;;2.61;74.57;98560.19;5051838;28;20072;-82
2024/01/27 07:22:09;;;;;;;10.80;5.93;;;;;;;2.66;74.82;98547.84;5053029;28;20113;-82
2024/01/27 07:24:36;;;;;;;9.77;5.63;;;;;;;2.71;74.69;98558.72;5040696;28;20049;-82
2024/01/27 07:27:04;;;;;;;7.95;4.97;;;;;;;2.71;73.92;98569.03;5041921;28;20072;-82
2024/01/27 07:29:32;;;;;;;9.20;5.35;;;;;;;2.67;73.78;98570.16;5044686;28;20049;-82
2024/01/27 07:32:00;;;;;;;9.05;5.47;;;;;;;2.64;73.54;98571.13;5040515;28;20116;-82
2024/01/27 07:34:27;;;;;;;10.73;4.88;;;;;;;2.60;73.76;98581.69;5036212;28;20057;-82
2024/01/27 07:36:57;;;;;;;16.42;6.43;;;;;;;2.54;73.56;98575.13;5034847;28;20118;-82
2024/01/27 07:39:24;;;;;;;9.65;5.63;;;;;;;2.52;73.64;98571.81;5036128;28;20141;-82
2024/01/27 07:41:52;;;;;;;13.23;7.03;;;;;;;2.48;73.98;98573.72;5035253;28;20049;-82
2024/01/27 07:44:20;;;;;;;15.30;8.38;;;;;;;2.46;73.63;98577.28;5033869;28;20128;-82
2024/01/27 07:46:47;;;;;;;17.67;10.40;;;;;;;2.45;73.64;98570.47;5034067;28;20053;-82
2024/01/27 07:49:15;;;;;;;15.45;8.90;;;;;;;2.50;75.17;98572.81;5034144;28;20049;-82
2024/01/27 07:51:43;;;;;;;11.88;6.82;;;;;;;2.60;74.75;98576.53;5033821;28;20051;-82
2024/01/27 07:54:12;;;;;;;9.38;6.25;;;;;;;2.59;74.55;98572.31;5033636;28;20053;-82
2024/01/27 07:56:41;;;;;;;9.57;6.13;;;;;;;2.62;73.94;98572.13;5034273;28;20045;-82
2024/01/27 07:59:13;;;;;;;8.90;5.55;;;;;;;2.63;74.96;98574.63;5038647;28;20140;-82
2024/01/27 08:01:41;;;;;;;7.60;5.07;;;;;;;2.71;74.72;98576.78;5037788;28;20069;-82
2024/01/27 08:04:09;;;;;;;6.30;4.55;;;;;;;2.78;75.08;98578.13;5037221;28;20103;-82
2024/01/27 08:06:47;;;;;;;9.88;5.22;;;;;;;2.83;75.30;98581.28;5037033;28;20073;-82
2024/01/27 08:09:16;;;;;;;10.52;6.15;;;;;;;2.86;74.90;98580.25;5037228;28;20490;-82
2024/01/27 08:11:45;;;;;;;10.98;6.85;;;;;;;2.89;74.59;98585.25;5037044;28;20052;-82
2024/01/27 08:14:12;;;;;;;10.68;6.22;;;;;;;2.89;73.86;98588.66;5037244;28;20549;-82
2024/01/27 08:16:40;;;;;;;8.70;6.60;;;;;;;2.93;73.92;98588.50;5037795;28;20089;-82
2024/01/27 08:19:07;;;;;;;11.43;5.78;;;;;;;2.94;74.49;98587.59;5039782;28;20059;-82
2024/01/27 08:21:35;;;;;;;11.02;6.13;;;;;;;3.02;75.20;98581.09;5037517;28;20049;-82
2024/01/27 08:24:03;;;;;;;11.75;6.60;;;;;;;3.13;75.71;98571.91;5037382;28;20053;-82
2024/01/27 08:26:32;;;;;;;10.13;7.25;;;;;;;3.23;77.50;98571.28;5037788;28;20049;-82
2024/01/27 08:29:00;;;;;;;10.70;6.88;;;;;;;3.33;76.94;98578.53;5037329;28;20430;-82
2024/01/27 08:31:27;;;;;;;13.15;6.90;;;;;;;3.37;76.18;98580.84;5037482;28;20049;-82
2024/01/27 08:33:55;;;;;;;14.88;8.35;;;;;;;3.40;75.25;98578.09;5037462;28;20087;-82
2024/01/27 08:36:23;;;;;;;13.63;6.80;;;;;;;3.40;75.30;98569.53;5043154;28;20061;-82
2024/01/27 08:38:51;;;;;;;12.50;6.82;;;;;;;3.44;75.71;98576.16;5059452;28;20049;-82
2024/01/27 08:41:19;;;;;;;9.55;7.35;;;;;;;3.50;76.83;98568.91;5059963;28;20037;-82
2024/01/27 08:43:47;;;;;;;13.25;7.07;;;;;;;3.61;76.37;98567.47;5059369;28;20049;-82
2024/01/27 08:46:17;;;;;;;11.15;6.45;;;;;;;3.65;76.18;98567.19;5040298;28;20042;-82
2024/01/27 08:48:45;;;;;;;11.30;6.70;;;;;;;3.76;78.21;98573.44;5039636;28;20045;-82
2024/01/27 08:51:13;;;;;;;12.23;6.40;;;;;;;3.89;78.54;98577.81;5038151;28;20154;-82
2024/01/27 08:53:40;;;;;;;8.55;6.30;;;;;;;4.00;78.85;98573.75;5038585;28;20060;-82
2024/01/27 08:56:08;;;;;;;10.20;6.55;;;;;;;4.11;78.30;98571.34;5037773;28;20045;-82
2024/01/27 08:58:35;;;;;;;7.72;6.05;;;;;;;4.19;78.04;98569.13;5037668;28;20133;-82
2024/01/27 09:01:07;;;;;;;14.40;6.63;;;;;;;4.28;79.01;98573.72;5037839;28;20138;-82
2024/01/27 09:03:35;;;;;;;7.97;5.70;;;;;;;4.36;77.02;98581.03;5038474;28;20053;-82
2024/01/27 09:06:04;;;;;;;12.23;7.22;;;;;;;4.40;75.84;98568.75;5037339;28;20045;-82
2024/01/27 09:08:32;;;;;;;13.82;7.28;;;;;;;4.46;74.76;98566.63;5048551;28;20053;-83
2024/01/27 09:11:01;;;;;;;13.73;7.13;;;;;;;4.53;73.53;98561.91;5054809;28;20026;-83
2024/01/27 09:13:30;;;;;;;15.25;6.88;;;;;;;4.61;72.72;98569.16;5055484;28;20056;-83
2024/01/27 09:15:59;;;;;;;16.25;7.80;;;;;;;4.68;73.78;98566.13;5055159;28;20057;-83
2024/01/27 09:18:29;;;;;;;11.15;7.68;;;;;;;4.86;75.72;98569.28;5038101;28;20493;-83
2024/01/27 09:20:58;;;;;;;12.05;7.25;;;;;;;5.06;76.45;98564.59;5037086;28;20119;-83
2024/01/27 09:23:29;;;;;;;13.10;8.02;;;;;;;5.25;76.81;98570.25;5037160;28;20053;-83
2024/01/27 09:25:58;;;;;;;11.50;7.43;;;;;;;5.33;74.15;98572.31;5037319;28;20052;-80
2024/01/27 09:28:28;;;;;;;9.20;7.10;;;;;;;5.45;75.05;98565.53;5043030;28;20489;-80
2024/01/27 09:30:58;;;;;;;11.35;7.22;;;;;;;5.61;75.02;98573.09;5042883;28;20426;-80
2024/01/27 09:33:27;;;;;;;12.75;7.18;;;;;;;5.74;74.36;98574.78;5041743;28;20052;-80
2024/01/27 09:35:58;;;;;;;10.57;6.57;;;;;;;5.87;72.96;98577.38;5038911;28;20063;-80
2024/01/27 09:38:28;;;;;;;10.60;6.38;;;;;;;5.95;70.56;98584.66;5038167;28;20061;-83
2024/01/27 09:40:57;;;;;;;9.38;6.20;;;;;;;6.13;72.01;98580.81;5036561;28;20479;-83
2024/01/27 09:43:29;;;;;;;11.80;6.38;;;;;;;6.32;71.48;98582.97;5036909;28;20053;-83
2024/01/27 09:45:59;;;;;;;11.10;6.20;;;;;;;6.58;69.22;98573.38;5037053;28;20057;-83
2024/01/27 09:48:29;;;;;;;9.15;6.35;;;;;;;6.87;71.02;98574.84;5036758;28;20080;-83
2024/01/27 09:51:03;;;;;;;9.75;5.63;;;;;;;7.22;70.78;98578.31;5036730;28;20053;-83
2024/01/27 09:53:32;;;;;;;8.27;5.47;;;;;;;7.59;71.18;98574.78;5037979;28;20076;-80
2024/01/27 09:56:03;;;;;;;13.57;6.78;;;;;;;7.96;66.15;98572.00;5038669;28;20054;-80
2024/01/27 09:58:33;;;;;;;11.02;5.57;;;;;;;8.28;66.08;98576.50;5038165;28;20053;-80
2024/01/27 10:01:03;;;;;;;9.52;5.03;;;;;;;8.58;65.02;98574.16;5037802;28;20426;-80
2024/01/27 10:03:34;;;;;;;13.68;5.85;;;;;;;8.89;61.06;98586.50;5037298;28;20072;-83
2024/01/27 10:06:12;;;;;;;9.60;5.40;;;;;;;9.19;58.52;98591.03;5036295;28;20087;-83
2024/01/27 10:08:53;;;;;;;9.50;4.43;;;;;;;9.53;61.74;98590.88;5037855;28;20400;-80
2024/01/27 10:11:22;;;;;;;10.52;4.53;;;;;;;9.81;57.67;98592.84;5053314;22;20037;-81
2024/01/27 10:13:55;;;;;;;7.95;4.75;;;;;;;9.99;54.31;98593.13;5033466;28;20459;-81
2024/01/27 10:16:26;;;;;;;9.88;4.47;;;;;;;10.31;57.79;98597.41;5034441;28;20072;-81
2024/01/27 10:19:01;;;;;;;11.35;5.07;;;;;;;10.63;53.35;98593.84;5034334;28;20084;-81
2024/01/27 10:21:30;;;;;;;11.35;5.30;;;;;;;10.88;52.68;98600.34;5037697;28;20057;-81
2024/01/27 10:23:58;;;;;;;7.50;4.47;;;;;;;11.11;51.77;98596.53;5036067;28;20057;-81
2024/01/27 10:26:26;;;;;;;6.63;4.40;;;;;;;11.35;55.71;98597.94;5034135;28;20045;-81
2024/01/27 10:28:54;;;;;;;10.98;5.18;;;;;;;11.74;56.07;98588.25;5033973;28;20114;-81
2024/01/27 10:31:27;;;;;;;8.60;4.32;;;;;;;12.05;52.08;98589.88;5033531;28;20520;-81
2024/01/27 10:33:56;;;;;;;;;;;;;;;12.14;48.64;98586.41;5033996;28;20065;-81
2024/01/27 10:36:24;;;;;;;7.63;4.32;;;;;;;12.26;55.47;98573.97;5033445;28;19921;-81
2024/01/27 10:38:53;;;;;;;9.25;4.57;;;;;;;12.56;55.42;98565.84;5034010;28;20447;-81
2024/01/27 10:41:23;;;;;;;12.43;3.83;;;;;;;12.87;50.18;98565.50;5033452;28;20057;-81
2024/01/27 10:43:52;;;;;;;9.43;3.75;;;;;;;13.11;48.39;98562.31;5033410;28;20067;-81
2024/01/27 10:46:22;;;;;;;7.35;3.88;;;;;;;13.24;47.13;98561.94;5033308;28;20568;-81
2024/01/27 10:48:51;;;;;;;10.25;3.90;;;;;;;13.36;45.38;98562.59;5033360;28;20057;-81
2024/01/27 10:51:26;;;;;;;10.55;3.80;;;;;;;13.49;43.47;98576.13;5033964;28;20498;-81
2024/01/27 10:54:03;;;;;;;7.68;3.70;;;;;;;13.69;43.14;98573.31;5033180;28;20057;-81
2024/01/27 10:56:32;;;;;;;8.85;3.50;;;;;;;13.92;45.10;98574.44;5033504;28;20049;-81
2024/01/27 10:59:01;;;;;;;7.20;3.00;;;;;;;14.30;48.03;98574.16;5033801;28;20058;-81
2024/01/27 11:01:31;;;;;;;6.05;2.63;;;;;;;14.73;47.16;98570.59;5033408;28;20089;-81
2024/01/27 11:04:00;;;;;;;7.47;2.63;;;;;;;15.10;43.87;98565.91;5033258;28;20053;-81
2024/01/27 11:06:30;;;;;;;5.82;2.85;;;;;;;15.28;41.91;98568.38;5032977;28;20080;-81
2024/01/27 11:09:00;;;;;;;6.53;2.30;;;;;;;15.43;41.71;98570.19;5033219;28;20060;-81
2024/01/27 11:11:28;;;;;;;6.40;3.08;;;;;;;15.51;40.16;98569.38;5032967;28;20548;-81
2024/01/27 11:13:56;;;;;;;7.20;2.92;;;;;;;15.58;41.12;98559.84;5033106;28;20080;-81
2024/01/27 11:16:24;;;;;;;7.03;2.90;;;;;;;15.66;41.34;98562.47;5032907;28;20077;-81
2024/01/27 11:18:52;;;;;;;3.95;2.20;;;;;;;15.77;38.68;98565.78;5033239;28;20045;-81
2024/01/27 11:21:20;;;;;;;6.78;2.40;;;;;;;15.79;37.77;98571.72;5033256;28;20136;-81
2024/01/27 11:23:48;;;;;;;7.75;2.38;;;;;;;15.88;39.56;98570.72;5032936;28;20141;-81
2024/01/27 11:26:22;;;;;;;3.92;1.70;;;;;;;16.11;36.85;98564.72;5032782;28;20080;-81
2024/01/27 11:28:51;;;;;;;9.90;2.78;;;;;;;16.34;40.75;98560.38;5033139;28;20129;-81
2024/01/27 11:31:20;;;;;;;4.85;1.98;;;;;;;16.70;41.54;98559.88;5032990;28;20084;-81
2024/01/27 11:33:51;;;;;;;7.80;2.83;;;;;;;16.91;37.20;98563.78;5032203;28;20092;-81
2024/01/27 11:36:22;;;;;;;5.85;1.95;;;;;;;16.96;36.33;98559.59;5033125;28;20076;-81
2024/01/27 11:38:51;;;;;;;7.18;2.10;;;;;;;16.93;35.34;98553.88;5032693;28;20501;-81
2024/01/27 11:41:27;;;;;;;6.95;2.50;;;;;;;16.86;34.00;98556.38;5032903;28;20049;-81
2024/01/27 11:43:56;;;;;;;8.18;1.65;;;;;;;17.02;37.90;98553.63;5032567;28;20060;-81
2024/01/27 11:46:24;;;;;;;6.70;1.70;;;;;;;17.34;36.31;98546.50;5032794;28;20061;-81